createdAt,value
2023-04-09T00:01:08.814Z,18.27
2023-04-09T00:04:10.600Z,18.95
2023-04-09T00:07:12.103Z,19.38
2023-04-09T00:10:13.639Z,21.85
2023-04-09T00:13:16.967Z,20.40
2023-04-09T00:16:21.818Z,19.73
2023-04-09T00:19:23.335Z,18.77
2023-04-09T00:22:24.913Z,19.40
2023-04-09T00:25:26.479Z,22.00
2023-04-09T00:28:27.972Z,18.58
2023-04-09T00:31:29.438Z,21.70
2023-04-09T00:34:31.230Z,20.48
2023-04-09T00:37:32.705Z,17.92
2023-04-09T00:40:34.148Z,19.27
2023-04-09T00:43:35.703Z,16.80
2023-04-09T00:46:37.962Z,16.15
2023-04-09T00:49:39.563Z,15.38
2023-04-09T00:52:41.090Z,15.60
2023-04-09T00:55:42.638Z,15.52
2023-04-09T00:58:44.316Z,16.58
2023-04-09T01:01:45.956Z,15.48
2023-04-09T01:04:47.904Z,14.38
2023-04-09T01:08:15.982Z,15.32
2023-04-09T01:11:44.448Z,16.88
2023-04-09T01:14:56.970Z,18.00
2023-04-09T01:18:24.466Z,17.15
2023-04-09T01:21:31.262Z,16.67
2023-04-09T01:25:01.037Z,19.27
2023-04-09T01:28:20.883Z,17.73
2023-04-09T01:31:34.117Z,18.02
2023-04-09T01:34:36.566Z,18.52
2023-04-09T01:37:40.092Z,19.35
2023-04-09T01:40:42.905Z,17.95
2023-04-09T01:43:45.742Z,16.48
2023-04-09T01:46:48.590Z,17.67
2023-04-09T01:49:51.578Z,20.52
2023-04-09T01:52:53.465Z,16.70
2023-04-09T01:55:56.659Z,17.10
2023-04-09T01:58:58.098Z,18.00
2023-04-09T02:02:11.282Z,19.85
2023-04-09T02:05:17.961Z,18.17
2023-04-09T02:08:21.488Z,17.58
2023-04-09T02:11:23.880Z,23.15
2023-04-09T02:14:26.550Z,21.10
2023-04-09T02:17:28.116Z,20.77
2023-04-09T02:20:29.622Z,21.23
2023-04-09T02:23:33.210Z,20.63
2023-04-09T02:26:34.689Z,21.33
2023-04-09T02:29:36.191Z,21.55
2023-04-09T02:32:37.829Z,25.05
2023-04-09T02:35:39.357Z,26.85
2023-04-09T02:38:42.003Z,22.67
2023-04-09T02:41:44.013Z,24.58
2023-04-09T02:44:45.467Z,22.88
2023-04-09T02:47:48.339Z,32.13
2023-04-09T02:50:50.037Z,21.23
2023-04-09T02:53:51.541Z,24.02
2023-04-09T02:56:53.027Z,23.45
2023-04-09T02:59:54.501Z,21.90
2023-04-09T03:02:56.350Z,21.92
2023-04-09T03:05:57.925Z,24.38
2023-04-09T03:08:59.509Z,24.70
2023-04-09T03:12:01.941Z,21.35
2023-04-09T03:15:04.560Z,24.35
2023-04-09T03:18:06.015Z,22.27
2023-04-09T03:21:08.297Z,18.75
2023-04-09T03:24:12.706Z,23.40
2023-04-09T03:27:14.920Z,21.83
2023-04-09T03:30:16.781Z,22.70
2023-04-09T03:33:20.249Z,22.98
2023-04-09T03:36:31.176Z,23.15
2023-04-09T03:39:44.350Z,24.85
2023-04-09T03:42:45.878Z,21.42
2023-04-09T03:45:50.500Z,22.17
2023-04-09T03:48:57.324Z,25.60
2023-04-09T03:52:07.197Z,22.88
2023-04-09T03:55:12.617Z,23.60
2023-04-09T03:58:14.269Z,22.20
2023-04-09T04:01:16.168Z,23.17
2023-04-09T04:04:28.329Z,26.38
2023-04-09T04:07:32.806Z,25.85
2023-04-09T04:10:40.717Z,23.17
2023-04-09T04:13:42.738Z,25.92
2023-04-09T04:16:45.133Z,24.17
2023-04-09T04:19:50.715Z,24.77
2023-04-09T04:22:52.314Z,21.42
2023-04-09T04:25:54.144Z,20.40
2023-04-09T04:29:03.054Z,25.60
2023-04-09T04:32:21.449Z,24.75
2023-04-09T04:35:23.676Z,23.13
2023-04-09T04:38:28.861Z,25.52
2023-04-09T04:41:32.172Z,25.27
2023-04-09T04:44:45.121Z,22.30
2023-04-09T04:47:56.207Z,23.65
2023-04-09T04:50:59.867Z,23.02
2023-04-09T04:54:06.704Z,22.55
2023-04-09T04:57:08.295Z,25.00
2023-04-09T05:00:15.176Z,21.38
2023-04-09T05:03:16.938Z,20.92
2023-04-09T05:06:35.355Z,26.38
2023-04-09T05:09:42.934Z,22.75
2023-04-09T05:12:44.563Z,22.67
2023-04-09T05:15:49.060Z,20.52
2023-04-09T05:18:51.203Z,21.88
2023-04-09T05:21:52.944Z,22.50
2023-04-09T05:24:56.971Z,24.80
2023-04-09T05:27:59.269Z,20.20
2023-04-09T05:31:01.604Z,22.60
2023-04-09T05:37:14.410Z,21.90
2023-04-09T05:40:19.803Z,22.38
2023-04-09T05:43:21.996Z,23.63
2023-04-09T05:46:23.548Z,23.42
2023-04-09T05:49:25.810Z,22.77
2023-04-09T05:55:32.402Z,25.52
2023-04-09T05:58:36.192Z,22.48
2023-04-09T06:01:37.769Z,23.42
2023-04-09T06:04:39.297Z,22.23
2023-04-09T06:07:40.881Z,23.85
2023-04-09T06:10:42.375Z,21.83
2023-04-09T06:13:43.990Z,22.08
2023-04-09T06:16:45.468Z,22.00
2023-04-09T06:19:47.497Z,24.45
2023-04-09T06:22:48.961Z,22.02
2023-04-09T06:25:50.430Z,21.80
2023-04-09T06:28:52.334Z,19.65
2023-04-09T06:31:54.064Z,20.50
2023-04-09T06:34:55.714Z,21.42
2023-04-09T06:37:57.193Z,21.65
2023-04-09T06:40:58.741Z,21.38
2023-04-09T06:44:00.622Z,21.17
2023-04-09T06:47:02.302Z,19.73
2023-04-09T06:50:04.164Z,19.67
2023-04-09T06:53:06.954Z,19.85
2023-04-09T06:56:08.546Z,17.65
2023-04-09T06:59:10.051Z,16.98
2023-04-09T07:02:11.958Z,19.17
2023-04-09T07:05:13.575Z,20.83
2023-04-09T07:08:15.271Z,17.88
2023-04-09T07:11:17.290Z,18.42
2023-04-09T07:14:18.918Z,16.88
2023-04-09T07:17:20.506Z,16.48
2023-04-09T07:20:22.018Z,17.60
2023-04-09T07:23:23.541Z,16.42
2023-04-09T07:26:25.022Z,15.48
2023-04-09T07:29:27.360Z,16.00
2023-04-09T07:32:29.339Z,16.05
2023-04-09T07:35:31.993Z,13.57
2023-04-09T07:38:33.522Z,14.98
2023-04-09T07:41:35.007Z,15.20
2023-04-09T07:44:36.728Z,14.93
2023-04-09T07:47:39.476Z,12.05
2023-04-09T07:50:40.931Z,13.88
2023-04-09T07:53:42.349Z,15.00
2023-04-09T07:56:43.880Z,14.48
2023-04-09T07:59:45.478Z,14.20
2023-04-09T08:02:47.176Z,12.70
2023-04-09T08:05:48.842Z,12.57
2023-04-09T08:08:50.862Z,13.35
2023-04-09T08:11:53.226Z,13.63
2023-04-09T08:14:54.747Z,12.60
2023-04-09T08:17:57.001Z,10.77
2023-04-09T08:20:58.552Z,10.57
2023-04-09T08:24:04.337Z,9.85
2023-04-09T08:27:05.792Z,10.30
2023-04-09T08:30:07.818Z,9.13
2023-04-09T08:33:09.648Z,9.57
2023-04-09T08:36:11.770Z,10.05
2023-04-09T08:39:13.300Z,9.98
2023-04-09T08:42:16.022Z,9.57
2023-04-09T08:45:17.561Z,8.95
2023-04-09T08:48:20.389Z,8.68
2023-04-09T08:51:24.013Z,7.95
2023-04-09T08:54:26.813Z,7.22
2023-04-09T08:57:28.396Z,8.10
2023-04-09T09:00:29.964Z,8.18
2023-04-09T09:03:31.524Z,7.70
2023-04-09T09:06:35.594Z,7.22
2023-04-09T09:09:53.946Z,7.55
2023-04-09T09:12:55.477Z,9.02
2023-04-09T09:16:15.132Z,8.40
2023-04-09T09:19:26.036Z,8.27
2023-04-09T09:22:27.582Z,6.72
2023-04-09T09:25:30.676Z,7.32
2023-04-09T09:28:36.090Z,8.82
2023-04-09T09:31:49.111Z,6.70
2023-04-09T09:35:07.514Z,7.25
2023-04-09T09:38:09.031Z,7.53
2023-04-09T09:41:20.604Z,6.45
2023-04-09T09:44:32.947Z,6.95
2023-04-09T09:47:34.716Z,8.60
2023-04-09T09:50:39.308Z,7.60
2023-04-09T09:53:45.868Z,6.78
2023-04-09T09:56:52.569Z,6.95
2023-04-09T10:00:00.660Z,7.18
2023-04-09T10:03:16.022Z,6.85
2023-04-09T10:06:18.368Z,6.15
2023-04-09T10:09:21.968Z,7.80
2023-04-09T10:12:25.044Z,7.03
2023-04-09T10:15:29.520Z,6.68
2023-04-09T10:18:33.496Z,6.95
2023-04-09T10:21:53.699Z,6.80
2023-04-09T10:24:55.817Z,6.72
2023-04-09T10:28:02.130Z,7.65
2023-04-09T10:31:05.551Z,6.95
2023-04-09T10:34:08.263Z,6.97
2023-04-09T10:37:22.834Z,6.07
2023-04-09T10:40:24.359Z,6.80
2023-04-09T10:43:25.796Z,6.88
2023-04-09T10:46:34.742Z,7.05
2023-04-09T10:49:38.498Z,7.85
2023-04-09T10:52:41.658Z,7.38
2023-04-09T10:55:50.221Z,7.75
2023-04-09T10:58:51.965Z,8.50
2023-04-09T11:01:54.666Z,7.72
2023-04-09T11:05:30.090Z,7.22
2023-04-09T11:08:33.370Z,7.50
2023-04-09T11:11:36.442Z,9.35
2023-04-09T11:14:37.872Z,7.00
2023-04-09T11:17:39.429Z,6.72
2023-04-09T11:20:41.366Z,6.55
2023-04-09T11:23:51.845Z,6.72
2023-04-09T11:26:54.771Z,7.35
2023-04-09T11:29:56.643Z,6.95
2023-04-09T11:32:58.108Z,8.38
2023-04-09T11:35:59.753Z,7.95
2023-04-09T11:39:02.400Z,7.15
2023-04-09T11:42:03.890Z,9.13
2023-04-09T11:45:05.989Z,7.85
2023-04-09T11:48:07.641Z,7.03
2023-04-09T11:51:09.282Z,6.53
2023-04-09T11:54:12.167Z,6.43
2023-04-09T11:57:13.640Z,6.10
2023-04-09T12:00:17.408Z,6.90
2023-04-09T12:03:19.293Z,6.78
2023-04-09T12:06:25.282Z,6.43
2023-04-09T12:09:26.862Z,6.00
2023-04-09T12:12:28.314Z,5.80
2023-04-09T12:15:34.659Z,6.15
2023-04-09T12:18:37.993Z,6.82
2023-04-09T12:21:51.924Z,6.85
2023-04-09T12:24:55.037Z,5.70
2023-04-09T12:27:56.757Z,5.82
2023-04-09T12:30:59.496Z,5.93
2023-04-09T12:34:01.182Z,5.57
2023-04-09T12:37:02.658Z,5.72
2023-04-09T12:40:04.495Z,5.75
2023-04-09T12:43:06.245Z,5.70
2023-04-09T12:46:08.207Z,5.70
2023-04-09T12:49:09.678Z,4.97
2023-04-09T12:52:11.158Z,4.97
2023-04-09T12:55:14.257Z,5.18
2023-04-09T12:58:15.884Z,5.78
2023-04-09T13:01:17.981Z,5.80
2023-04-09T13:04:19.570Z,5.78
2023-04-09T13:07:21.160Z,5.00
2023-04-09T13:10:22.687Z,4.97
2023-04-09T13:13:25.013Z,5.75
2023-04-09T13:16:26.863Z,6.20
2023-04-09T13:19:28.419Z,5.90
2023-04-09T13:22:29.902Z,6.00
2023-04-09T13:25:31.382Z,6.60
2023-04-09T13:28:33.216Z,6.47
2023-04-09T13:31:37.954Z,6.53
2023-04-09T13:34:39.882Z,5.80
2023-04-09T13:37:41.955Z,7.25
2023-04-09T13:40:44.226Z,6.82
2023-04-09T13:43:45.746Z,5.97
2023-04-09T13:46:47.272Z,5.80
2023-04-09T13:49:48.746Z,5.35
2023-04-09T13:52:50.405Z,5.65
2023-04-09T13:55:51.857Z,6.70
2023-04-09T13:58:53.441Z,5.78
2023-04-09T14:01:55.699Z,6.53
2023-04-09T14:04:57.240Z,5.78
2023-04-09T14:07:58.934Z,7.28
2023-04-09T14:11:00.740Z,5.88
2023-04-09T14:14:02.380Z,6.05
2023-04-09T14:17:03.839Z,6.30
2023-04-09T14:20:05.963Z,6.20
2023-04-09T14:23:07.496Z,6.53
2023-04-09T14:26:08.969Z,5.68
2023-04-09T14:29:10.860Z,7.88
2023-04-09T14:32:12.309Z,6.38
2023-04-09T14:35:13.874Z,6.57
2023-04-09T14:38:15.367Z,6.60
2023-04-09T14:41:17.006Z,5.65
2023-04-09T14:44:18.451Z,7.82
2023-04-09T14:47:20.045Z,5.68
2023-04-09T14:50:21.555Z,8.48
2023-04-09T14:53:23.420Z,5.70
2023-04-09T14:56:27.736Z,7.88
2023-04-09T14:59:29.218Z,6.13
2023-04-09T15:02:30.888Z,5.70
2023-04-09T15:05:32.527Z,5.10
2023-04-09T15:08:34.042Z,5.55
2023-04-09T15:11:35.512Z,5.90
2023-04-09T15:14:36.968Z,5.38
2023-04-09T15:17:38.486Z,6.80
2023-04-09T15:20:40.380Z,5.75
2023-04-09T15:23:41.860Z,5.95
2023-04-09T15:26:43.410Z,5.90
2023-04-09T15:29:45.063Z,5.43
2023-04-09T15:32:46.571Z,7.63
2023-04-09T15:35:48.116Z,5.32
2023-04-09T15:38:53.922Z,5.25
2023-04-09T15:41:59.020Z,6.40
2023-04-09T15:45:00.521Z,6.03
2023-04-09T15:48:02.066Z,5.53
2023-04-09T15:51:04.938Z,6.15
2023-04-09T15:54:06.374Z,5.43
2023-04-09T15:57:07.881Z,5.63
2023-04-09T16:00:10.715Z,5.28
2023-04-09T16:03:12.782Z,5.20
2023-04-09T16:06:14.430Z,6.38
2023-04-09T16:09:16.161Z,5.25
2023-04-09T16:12:17.592Z,5.40
2023-04-09T16:15:19.041Z,6.70
2023-04-09T16:18:20.652Z,6.97
2023-04-09T16:21:22.353Z,7.03
2023-04-09T16:24:23.795Z,6.03
2023-04-09T16:27:25.362Z,6.50
2023-04-09T16:30:26.940Z,6.20
2023-04-09T16:33:28.468Z,5.72
2023-04-09T16:36:31.517Z,5.85
2023-04-09T16:39:33.091Z,6.43
2023-04-09T16:42:34.640Z,5.40
2023-04-09T16:45:36.226Z,5.78
2023-04-09T16:48:41.623Z,6.78
2023-04-09T16:51:43.279Z,6.40
2023-04-09T16:54:44.811Z,6.13
2023-04-09T16:57:46.338Z,6.55
2023-04-09T17:00:48.772Z,6.13
2023-04-09T17:03:52.184Z,6.55
2023-04-09T17:06:53.751Z,8.30
2023-04-09T17:09:55.410Z,6.68
2023-04-09T17:12:56.881Z,7.28
2023-04-09T17:15:58.570Z,7.68
2023-04-09T17:19:00.117Z,7.03
2023-04-09T17:22:01.641Z,7.30
2023-04-09T17:25:04.748Z,8.18
2023-04-09T17:28:06.911Z,6.45
2023-04-09T17:31:13.279Z,7.07
2023-04-09T17:34:16.264Z,7.07
2023-04-09T17:37:17.706Z,7.88
2023-04-09T17:40:20.050Z,6.68
2023-04-09T17:43:21.492Z,6.70
2023-04-09T17:46:23.760Z,7.00
2023-04-09T17:49:25.318Z,6.43
2023-04-09T17:52:26.836Z,7.20
2023-04-09T17:55:28.358Z,6.55
2023-04-09T17:58:29.987Z,6.10
2023-04-09T18:01:31.527Z,7.72
2023-04-09T18:04:33.910Z,6.03
2023-04-09T18:07:35.882Z,6.53
2023-04-09T18:10:37.377Z,7.55
2023-04-09T18:13:38.998Z,7.95
2023-04-09T18:16:41.241Z,9.60
2023-04-09T18:19:42.826Z,6.25
2023-04-09T18:22:44.297Z,5.88
2023-04-09T18:25:45.989Z,6.50
2023-04-09T18:28:47.489Z,6.47
2023-04-09T18:31:49.070Z,6.72
2023-04-09T18:34:51.981Z,6.60
2023-04-09T18:37:53.490Z,7.18
2023-04-09T18:40:56.457Z,6.18
2023-04-09T18:43:57.966Z,7.85
2023-04-09T18:47:00.014Z,8.68
2023-04-09T18:50:02.383Z,7.47
2023-04-09T18:53:05.543Z,7.82
2023-04-09T18:56:07.236Z,11.83
2023-04-09T18:59:08.730Z,6.97
2023-04-09T19:02:10.706Z,6.90
2023-04-09T19:05:12.363Z,7.43
2023-04-09T19:08:14.110Z,7.38
2023-04-09T19:11:16.152Z,6.75
2023-04-09T19:14:17.632Z,31.52
2023-04-09T19:17:19.207Z,40.35
2023-04-09T19:20:20.968Z,35.00
2023-04-09T19:23:22.390Z,12.65
2023-04-09T19:26:23.932Z,7.82
2023-04-09T19:29:25.469Z,6.97
2023-04-09T19:32:27.087Z,6.53
2023-04-09T19:35:28.784Z,6.68
2023-04-09T19:38:30.246Z,8.20
2023-04-09T19:41:31.813Z,8.48
2023-04-09T19:44:33.306Z,6.97
2023-04-09T19:47:34.945Z,8.23
2023-04-09T19:50:37.942Z,6.63
2023-04-09T19:53:40.033Z,7.20
2023-04-09T19:56:42.437Z,7.53
2023-04-09T19:59:43.892Z,7.63
2023-04-09T20:02:45.618Z,8.75
2023-04-09T20:05:47.737Z,6.72
2023-04-09T20:08:49.543Z,7.30
2023-04-09T20:11:51.236Z,6.53
2023-04-09T20:14:52.712Z,6.28
2023-04-09T20:17:54.245Z,7.28
2023-04-09T20:20:55.913Z,7.10
2023-04-09T20:23:57.340Z,7.15
2023-04-09T20:26:59.630Z,8.98
2023-04-09T20:30:02.062Z,9.27
2023-04-09T20:33:03.630Z,8.25
2023-04-09T20:36:14.470Z,6.85
2023-04-09T20:39:16.261Z,7.63
2023-04-09T20:42:17.741Z,7.82
2023-04-09T20:45:19.262Z,6.18
2023-04-09T20:48:20.932Z,6.47
2023-04-09T20:51:22.872Z,34.03
2023-04-09T20:54:24.352Z,38.90
2023-04-09T20:57:25.929Z,11.55
2023-04-09T21:00:27.491Z,9.80
2023-04-09T21:03:29.813Z,8.30
2023-04-09T21:06:31.711Z,7.03
2023-04-09T21:09:34.080Z,7.00
2023-04-09T21:12:35.657Z,10.38
2023-04-09T21:15:37.174Z,8.95
2023-04-09T21:18:38.736Z,7.95
2023-04-09T21:21:40.364Z,6.45
2023-04-09T21:24:41.844Z,6.93
2023-04-09T21:27:43.327Z,7.13
2023-04-09T21:30:44.777Z,7.80
2023-04-09T21:33:46.396Z,7.97
2023-04-09T21:36:48.542Z,8.52
2023-04-09T21:39:50.110Z,12.20
2023-04-09T21:42:52.025Z,12.95
2023-04-09T21:45:53.697Z,11.68
2023-04-09T21:48:55.261Z,8.25
2023-04-09T21:51:59.151Z,11.38
2023-04-09T21:55:00.882Z,13.43
2023-04-09T21:58:03.471Z,9.55
2023-04-09T22:01:07.463Z,9.88
2023-04-09T22:04:13.583Z,9.98
2023-04-09T22:07:15.297Z,9.15
2023-04-09T22:10:16.870Z,11.55
2023-04-09T22:13:18.278Z,11.25
2023-04-09T22:16:19.904Z,10.70
2023-04-09T22:19:21.634Z,10.55
2023-04-09T22:22:23.121Z,10.95
2023-04-09T22:25:24.882Z,12.95
2023-04-09T22:28:26.381Z,9.93
2023-04-09T22:31:27.886Z,11.45
2023-04-09T22:34:29.357Z,10.50
2023-04-09T22:37:30.856Z,11.85
2023-04-09T22:40:32.330Z,11.63
2023-04-09T22:43:33.772Z,13.80
2023-04-09T22:46:36.055Z,11.50
2023-04-09T22:49:37.513Z,12.68
2023-04-09T22:52:38.945Z,13.80
2023-04-09T22:55:40.564Z,12.57
2023-04-09T22:58:42.133Z,12.70
2023-04-09T23:01:43.718Z,12.15
2023-04-09T23:04:45.445Z,12.60
2023-04-09T23:07:47.052Z,12.13
2023-04-09T23:10:48.534Z,12.45
2023-04-09T23:13:50.003Z,13.38
2023-04-09T23:16:51.464Z,12.00
2023-04-09T23:19:52.936Z,13.15
2023-04-09T23:22:54.429Z,12.95
2023-04-09T23:25:55.936Z,12.55
2023-04-09T23:28:57.429Z,13.43
2023-04-09T23:31:59.210Z,12.07
2023-04-09T23:35:01.693Z,13.38
2023-04-09T23:38:03.215Z,13.65
2023-04-09T23:41:04.895Z,13.18
2023-04-09T23:44:06.344Z,12.95
2023-04-09T23:47:07.918Z,13.63
2023-04-09T23:50:09.902Z,13.55
2023-04-09T23:53:11.657Z,14.85
2023-04-09T23:56:16.168Z,13.65
2023-04-09T23:59:17.660Z,12.40
